Darstellungsparameter: Aktuell verwendete Einstellungen:
Skalierung der Graphiken ... ?
xyx+y,   Skalierungsfaktor:      Skalierung: Modus: x, Faktor: 1
Darstellungszeitraum ... ?
Vom - - bis: - -   Zeitraum: 06.06.2019 - 05.07.2019
Min/Max/Avg-Anzeige ... ?
Zeige MMA aktuell
Zeige MMA Monat
Zeige MMA alles
Zeige --A aktuell
Zeige --A Monat
Zeige --A alles
Keine MMA-Anzeige
MMA:
Average (ber die Originaldaten)
MMA-Basis: 06.06.2019 - 05.07.2019
Quicknavigation für Darstellung... ?
Tage:      1T, 2T, 3T, 5T -1T -2T -3T -5T +1T +2T +3T +5T
Wochen: 1W, 2W, 3W -1W -2W -3W +1W +2W +3W
Monate: 1M, 3M, 6M -1M -3M -6M +1M +3M +6M
Jahre:    1J, 3J, 5J, 10J -1J -3J -5J -10J +1J +3J +5J +10J
Nutze für die Darstellung ... ?
Originaldaten oder ...
Mittelwerte Minima Maxima auf...
Stundenbasis Tagesbasis Wochenbasis
Monatsbasis Jahresbasis      Datenbasis: Mittelwerte auf Stundenbasis
Darstellen als:
Statistik (Auto) Statistik J:M      Darstellung:
Zur Graphik,    zurück zur Übersicht aller Sensoren.
 
Tabellarische Datenbersicht: ?
 
Sensor: Nr:Datum:Temp:Abs-Feuchte:Windchill:Wind:
Aussen-T/F 1 06-06-2019 00:00:00 21.575 C 13.11 g/m*3 21.58 C 15.69167 km/h
2 06-06-2019 01:00:00 18.925 C 13.24 g/m*3 18.93 C 8.85 km/h
3 06-06-2019 02:00:00 17.10833 C 13.39 g/m*3 17.11 C 0.8 km/h
4 06-06-2019 03:00:00 16.70833 C 13.32 g/m*3 16.71 C 0.8 km/h
5 06-06-2019 04:00:00 16.48333 C 13.27 g/m*3 16.48 C 0.66667 km/h
6 06-06-2019 05:00:00 15.51667 C 12.39 g/m*3 15.52 C 12.89167 km/h
7 06-06-2019 06:00:00 13.94167 C 11.1 g/m*3 13.94 C 14.36667 km/h
8 06-06-2019 07:00:00 13.19167 C 10.29 g/m*3 13.19 C 11.29167 km/h
9 06-06-2019 08:00:00 13.325 C 9.79 g/m*3 13.33 C 14.75833 km/h
10 06-06-2019 09:00:00 13.10833 C 9.27 g/m*3 13.11 C 10.06667 km/h
11 06-06-2019 10:00:00 13.80833 C 9.54 g/m*3 13.81 C 7.65 km/h
12 06-06-2019 11:00:00 14.93333 C 9.64 g/m*3 14.93 C 8.6 km/h
13 06-06-2019 12:00:00 15.40833 C 9.63 g/m*3 15.41 C 11.3 km/h
14 06-06-2019 13:00:00 16.49167 C 9.73 g/m*3 16.49 C 13.03333 km/h
15 06-06-2019 14:00:00 17.025 C 9.88 g/m*3 17.02 C 11.29167 km/h
16 06-06-2019 15:00:00 17.75833 C 10.06 g/m*3 17.76 C 12.76667 km/h
17 06-06-2019 16:00:00 18 C 10.06 g/m*3 18 C 11.56667 km/h
18 06-06-2019 17:00:00 16.73333 C 9.85 g/m*3 16.73 C 9.4 km/h
19 06-06-2019 18:00:00 16.975 C 10.1 g/m*3 16.98 C 9.55 km/h
20 06-06-2019 19:00:00 18.26667 C 9.92 g/m*3 18.27 C 9.425 km/h
21 06-06-2019 20:00:00 17.725 C 9.87 g/m*3 17.73 C 4.41667 km/h
22 06-06-2019 21:00:00 15.43333 C 9.93 g/m*3 15.43 C 0 km/h
23 06-06-2019 22:00:00 12.75 C 9.36 g/m*3 12.75 C 0 km/h
24 06-06-2019 23:00:00 11.43333 C 9 g/m*3 11.43 C 0 km/h
25 07-06-2019 00:00:00 10.475 C 8.76 g/m*3 10.48 C 0 km/h
Sensor: Nr:Datum:Temp:Abs-Feuchte:Windchill:Wind:
Aussen-T/F 26 07-06-2019 01:00:00 9.875 C 8.59 g/m*3 9.88 C 0 km/h
27 07-06-2019 02:00:00 9.425 C 8.43 g/m*3 9.43 C 0 km/h
28 07-06-2019 03:00:00 9.56667 C 8.64 g/m*3 9.57 C 0 km/h
29 07-06-2019 04:00:00 10.13333 C 8.97 g/m*3 10.13 C 0 km/h
30 07-06-2019 05:00:00 9.23333 C 8.44 g/m*3 9.23 C 0 km/h
31 07-06-2019 06:00:00 9.60833 C 8.78 g/m*3 9.61 C 0 km/h
32 07-06-2019 07:00:00 10.38333 C 9.24 g/m*3 10.38 C 1.06667 km/h
33 07-06-2019 08:00:00 11.86667 C 9.78 g/m*3 11.87 C 7.64167 km/h
34 07-06-2019 09:00:00 13.75833 C 10 g/m*3 13.76 C 11.29167 km/h
35 07-06-2019 10:00:00 16.65 C 10.74 g/m*3 16.65 C 8.85833 km/h
36 07-06-2019 11:00:00 18.75833 C 10.52 g/m*3 18.76 C 9.81667 km/h
37 07-06-2019 12:00:00 19.9 C 10.9 g/m*3 19.9 C 9.55833 km/h
38 07-06-2019 13:00:00 20.89167 C 11.71 g/m*3 20.89 C 6.84167 km/h
39 07-06-2019 14:00:00 21.09167 C 12.55 g/m*3 21.09 C 4.56667 km/h
40 07-06-2019 15:00:00 24.175 C 12.56 g/m*3 24.18 C 9.41667 km/h
41 07-06-2019 16:00:00 25.96667 C 12.29 g/m*3 25.97 C 7.8 km/h
42 07-06-2019 17:00:00 25.36667 C 13.61 g/m*3 25.37 C 4.95833 km/h
43 07-06-2019 18:00:00 21.74167 C 11.2 g/m*3 21.74 C 25.73333 km/h
44 07-06-2019 19:00:00 17.18333 C 9.17 g/m*3 17.18 C 22.13333 km/h
45 07-06-2019 20:00:00 15.41667 C 9.43 g/m*3 15.42 C 13.68333 km/h
46 07-06-2019 21:00:00 14.95 C 9.32 g/m*3 14.95 C 3.86667 km/h
47 07-06-2019 22:00:00 14.8 C 8.85 g/m*3 14.8 C 2.80833 km/h
48 07-06-2019 23:00:00 15.125 C 8.59 g/m*3 15.13 C 5.89167 km/h
49 08-06-2019 00:00:00 15.46667 C 8.76 g/m*3 15.47 C 10.35 km/h
50 08-06-2019 01:00:00 15.61667 C 8.69 g/m*3 15.62 C 13.3 km/h
Sensor: Nr:Datum:Temp:Abs-Feuchte:Windchill:Wind:
Aussen-T/F 51 08-06-2019 02:00:00 15.34167 C 8.78 g/m*3 15.34 C 8.45 km/h
52 08-06-2019 03:00:00 15.06667 C 8.63 g/m*3 15.07 C 8.05833 km/h
53 08-06-2019 04:00:00 14.86667 C 8.14 g/m*3 14.87 C 12.88333 km/h
54 08-06-2019 05:00:00 14.10833 C 7.69 g/m*3 14.11 C 15.69167 km/h
55 08-06-2019 06:00:00 13.325 C 7.72 g/m*3 13.33 C 15.825 km/h
56 08-06-2019 07:00:00 13.69167 C 7.75 g/m*3 13.69 C 19.43333 km/h
57 08-06-2019 08:00:00 14.29167 C 8.02 g/m*3 14.29 C 17.96667 km/h
58 08-06-2019 09:00:00 14.575 C 8.26 g/m*3 14.58 C 12.35833 km/h
59 08-06-2019 10:00:00 14.90833 C 8.49 g/m*3 14.91 C 14.225 km/h
60 08-06-2019 11:00:00 15.70833 C 8.59 g/m*3 15.71 C 12.89167 km/h
61 08-06-2019 12:00:00 16.525 C 8.65 g/m*3 16.52 C 14.23333 km/h
62 08-06-2019 13:00:00 17.38333 C 8.54 g/m*3 17.38 C 17.56667 km/h
63 08-06-2019 14:00:00 18.325 C 8.73 g/m*3 18.33 C 15.03333 km/h
64 08-06-2019 15:00:00 19.15 C 8.63 g/m*3 19.15 C 15.16667 km/h
65 08-06-2019 16:00:00 19.65833 C 8.61 g/m*3 19.66 C 15.03333 km/h
66 08-06-2019 17:00:00 19.925 C 8.52 g/m*3 19.93 C 14.9 km/h
67 08-06-2019 18:00:00 19.95833 C 8.52 g/m*3 19.96 C 12.475 km/h
68 08-06-2019 19:00:00 18.98333 C 8.87 g/m*3 18.98 C 13.16667 km/h
69 08-06-2019 20:00:00 17.61667 C 9.35 g/m*3 17.62 C 2.275 km/h
70 08-06-2019 21:00:00 16.11667 C 9.6 g/m*3 16.12 C 2.675 km/h
71 08-06-2019 22:00:00 14.39167 C 9.21 g/m*3 14.39 C 0.66667 km/h
72 08-06-2019 23:00:00 12.65833 C 8.95 g/m*3 12.66 C 0.8 km/h
73 09-06-2019 00:00:00 11.66667 C 8.84 g/m*3 11.67 C 0.26667 km/h
74 09-06-2019 01:00:00 11.08333 C 8.75 g/m*3 11.08 C 2.13333 km/h
75 09-06-2019 02:00:00 10.925 C 8.7 g/m*3 10.93 C 1.46667 km/h
Sensor: Nr:Datum:Temp:Abs-Feuchte:Windchill:Wind:
Aussen-T/F 76 09-06-2019 03:00:00 10.28333 C 8.52 g/m*3 10.28 C 0 km/h
77 09-06-2019 04:00:00 9.4 C 8.17 g/m*3 9.4 C 0 km/h
78 09-06-2019 05:00:00 8.675 C 7.97 g/m*3 8.68 C 0 km/h
79 09-06-2019 06:00:00 8.63333 C 8.04 g/m*3 8.63 C 0 km/h
80 09-06-2019 07:00:00 9.68333 C 8.7 g/m*3 9.68 C 0.13333 km/h
81 09-06-2019 08:00:00 11.03333 C 9.45 g/m*3 11.03 C 0 km/h
82 09-06-2019 09:00:00 12.80833 C 10.18 g/m*3 12.81 C 0 km/h
83 09-06-2019 10:00:00 16.55 C 10.28 g/m*3 16.55 C 4.43333 km/h
84 09-06-2019 11:00:00 18.86667 C 9.31 g/m*3 18.87 C 5.75833 km/h
85 09-06-2019 12:00:00 19.76667 C 9.15 g/m*3 19.77 C 7.925 km/h
86 09-06-2019 13:00:00 20.71667 C 9.31 g/m*3 20.72 C 10.75 km/h
87 09-06-2019 14:00:00 21.925 C 9.76 g/m*3 21.93 C 9.13333 km/h
88 09-06-2019 15:00:00 22.45833 C 10.03 g/m*3 22.46 C 9.425 km/h
89 09-06-2019 16:00:00 22.79167 C 10.29 g/m*3 22.79 C 9.14167 km/h
90 09-06-2019 17:00:00 22.7 C 10.42 g/m*3 22.7 C 7.65833 km/h
91 09-06-2019 18:00:00 23.09167 C 10.42 g/m*3 23.09 C 9.95 km/h
92 09-06-2019 19:00:00 21.64167 C 12.07 g/m*3 21.64 C 0 km/h
93 09-06-2019 20:00:00 19.74167 C 11.76 g/m*3 19.74 C 0 km/h
94 09-06-2019 21:00:00 18.86667 C 11.67 g/m*3 18.87 C 0 km/h
95 09-06-2019 22:00:00 18.36667 C 11.71 g/m*3 18.37 C 0 km/h
96 09-06-2019 23:00:00 17.95 C 11.66 g/m*3 17.95 C 0 km/h
97 10-06-2019 00:00:00 17.525 C 11.62 g/m*3 17.52 C 0 km/h
98 10-06-2019 01:00:00 16.95833 C 11.21 g/m*3 16.96 C 0 km/h
99 10-06-2019 02:00:00 16.08333 C 10.92 g/m*3 16.08 C 0 km/h
100 10-06-2019 03:00:00 14.94167 C 10.83 g/m*3 14.94 C 0 km/h
Sensor: Nr:Datum:Temp:Abs-Feuchte:Windchill:Wind:
Aussen-T/F 101 10-06-2019 04:00:00 14.625 C 10.84 g/m*3 14.63 C 0.675 km/h
102 10-06-2019 05:00:00 14.775 C 11.07 g/m*3 14.78 C 0.4 km/h
103 10-06-2019 06:00:00 14.825 C 11.23 g/m*3 14.83 C 0 km/h
104 10-06-2019 07:00:00 15.5 C 11.56 g/m*3 15.5 C 2.13333 km/h
105 10-06-2019 08:00:00 17.725 C 12.13 g/m*3 17.73 C 3.34167 km/h
106 10-06-2019 09:00:00 18.94167 C 12.32 g/m*3 18.94 C 9.83333 km/h
107 10-06-2019 10:00:00 19.85 C 12.53 g/m*3 19.85 C 8.34167 km/h
108 10-06-2019 11:00:00 21.15833 C 12.66 g/m*3 21.16 C 8.45833 km/h
109 10-06-2019 12:00:00 22.34167 C 12.6 g/m*3 22.34 C 6.45 km/h
110 10-06-2019 13:00:00 23.06667 C 12.71 g/m*3 23.07 C 5.9 km/h
111 10-06-2019 14:00:00 23.225 C 13.03 g/m*3 23.23 C 10.625 km/h
112 10-06-2019 15:00:00 23.225 C 13.1 g/m*3 23.23 C 8.34167 km/h
113 10-06-2019 16:00:00 24.06667 C 13.07 g/m*3 24.07 C 5.9 km/h
114 10-06-2019 17:00:00 23.65 C 12.96 g/m*3 23.65 C 3.6 km/h
115 10-06-2019 18:00:00 23.19167 C 12.87 g/m*3 23.19 C 6.70833 km/h
116 10-06-2019 19:00:00 21.7 C 12.34 g/m*3 21.7 C 5.09167 km/h
117 10-06-2019 20:00:00 20.61667 C 12.53 g/m*3 20.62 C 0.8 km/h
118 10-06-2019 21:00:00 19.38333 C 12.45 g/m*3 19.38 C 5.775 km/h
119 10-06-2019 22:00:00 17.975 C 12.19 g/m*3 17.98 C 6.575 km/h
120 10-06-2019 23:00:00 17.09167 C 12 g/m*3 17.09 C 2.8 km/h
121 11-06-2019 00:00:00 16.55833 C 12.05 g/m*3 16.56 C 3.075 km/h
122 11-06-2019 01:00:00 16.38333 C 12.11 g/m*3 16.38 C 4.14167 km/h
123 11-06-2019 02:00:00 16.15833 C 11.86 g/m*3 16.16 C 0.8 km/h
124 11-06-2019 03:00:00 15.29167 C 11.83 g/m*3 15.29 C 0.66667 km/h
125 11-06-2019 04:00:00 14.6 C 11.65 g/m*3 14.6 C 0.4 km/h
Sensor: Nr:Datum:Temp:Abs-Feuchte:Windchill:Wind:
Aussen-T/F 126 11-06-2019 05:00:00 14.21667 C 11.49 g/m*3 14.22 C 0 km/h
127 11-06-2019 06:00:00 14.15833 C 11.55 g/m*3 14.16 C 0 km/h
128 11-06-2019 07:00:00 14.5 C 11.86 g/m*3 14.5 C 0 km/h
129 11-06-2019 08:00:00 15.01667 C 12.27 g/m*3 15.02 C 0.26667 km/h
130 11-06-2019 09:00:00 15.34167 C 12.28 g/m*3 15.34 C 1.06667 km/h
131 11-06-2019 10:00:00 16.16667 C 12.49 g/m*3 16.17 C 1.20833 km/h
132 11-06-2019 11:00:00 16.925 C 12.28 g/m*3 16.93 C 2 km/h
133 11-06-2019 12:00:00 17.81667 C 11.94 g/m*3 17.82 C 2.26667 km/h
134 11-06-2019 13:00:00 19.09167 C 11.78 g/m*3 19.09 C 4.93333 km/h
135 11-06-2019 14:00:00 20.24167 C 11.58 g/m*3 20.24 C 5.09167 km/h
136 11-06-2019 15:00:00 21.31667 C 11.54 g/m*3 21.32 C 5.48333 km/h
137 11-06-2019 16:00:00 20.94167 C 12.14 g/m*3 20.94 C 1.6 km/h
138 11-06-2019 17:00:00 19.28333 C 13.15 g/m*3 19.28 C 0.13333 km/h
139 11-06-2019 18:00:00 18.75833 C 13.2 g/m*3 18.76 C 0.13333 km/h
140 11-06-2019 19:00:00 20.35 C 12.52 g/m*3 20.35 C 4.825 km/h
141 11-06-2019 20:00:00 19.19167 C 13.16 g/m*3 19.19 C 0 km/h
142 11-06-2019 21:00:00 17.76667 C 12.6 g/m*3 17.77 C 0 km/h
143 11-06-2019 22:00:00 16.79167 C 12.11 g/m*3 16.79 C 0 km/h
144 11-06-2019 23:00:00 15.70833 C 11.58 g/m*3 15.71 C 0.13333 km/h
145 12-06-2019 00:00:00 15.16667 C 11.27 g/m*3 15.17 C 0 km/h
146 12-06-2019 01:00:00 14.39167 C 10.98 g/m*3 14.39 C 0.4 km/h
147 12-06-2019 02:00:00 14.59167 C 11.26 g/m*3 14.59 C 0 km/h
148 12-06-2019 03:00:00 14.525 C 11.3 g/m*3 14.53 C 0 km/h
149 12-06-2019 04:00:00 14.39167 C 11.24 g/m*3 14.39 C 0 km/h
150 12-06-2019 05:00:00 14.125 C 11.15 g/m*3 14.13 C 0.26667 km/h
Sensor: Nr:Datum:Temp:Abs-Feuchte:Windchill:Wind:
Aussen-T/F 151 12-06-2019 06:00:00 13.95833 C 11.12 g/m*3 13.96 C 0.93333 km/h
152 12-06-2019 07:00:00 14.875 C 11.62 g/m*3 14.88 C 2.53333 km/h
153 12-06-2019 08:00:00 15.81667 C 11.95 g/m*3 15.82 C 3.075 km/h
154 12-06-2019 09:00:00 16.53333 C 12.08 g/m*3 16.53 C 5.23333 km/h
155 12-06-2019 10:00:00 15.15 C 11.89 g/m*3 15.15 C 7.65 km/h
156 12-06-2019 11:00:00 13.975 C 11.25 g/m*3 13.98 C 9.65833 km/h
157 12-06-2019 12:00:00 14.40833 C 11.75 g/m*3 14.41 C 1.875 km/h
158 12-06-2019 13:00:00 15.325 C 12.16 g/m*3 15.33 C 6.3 km/h
159 12-06-2019 14:00:00 17.175 C 12.27 g/m*3 17.18 C 10.46667 km/h
160 12-06-2019 15:00:00 18.2 C 12.11 g/m*3 18.2 C 10.21667 km/h
161 12-06-2019 16:00:00 20.125 C 11.59 g/m*3 20.13 C 10.76667 km/h
162 12-06-2019 17:00:00 21.81667 C 11.33 g/m*3 21.82 C 12.1 km/h
163 12-06-2019 18:00:00 22.64167 C 10.86 g/m*3 22.64 C 9.025 km/h
164 12-06-2019 19:00:00 21.925 C 10.26 g/m*3 21.93 C 10.5 km/h
165 12-06-2019 20:00:00 21.23333 C 11.67 g/m*3 21.23 C 1.20833 km/h
166 12-06-2019 21:00:00 17.83333 C 11.33 g/m*3 17.83 C 0 km/h
167 12-06-2019 22:00:00 14.38333 C 10.47 g/m*3 14.38 C 0 km/h
168 12-06-2019 23:00:00 13.15833 C 10.11 g/m*3 13.16 C 0 km/h
169 13-06-2019 00:00:00 12.55833 C 9.88 g/m*3 12.56 C 0 km/h
170 13-06-2019 01:00:00 11.68333 C 9.48 g/m*3 11.68 C 0 km/h
171 13-06-2019 02:00:00 10.9 C 9.19 g/m*3 10.9 C 0 km/h
172 13-06-2019 03:00:00 10.29167 C 8.96 g/m*3 10.29 C 0 km/h
173 13-06-2019 04:00:00 9.775 C 8.71 g/m*3 9.78 C 0 km/h
174 13-06-2019 05:00:00 9.45833 C 8.62 g/m*3 9.46 C 0 km/h
175 13-06-2019 06:00:00 9.50833 C 8.68 g/m*3 9.51 C 0 km/h
Sensor: Nr:Datum:Temp:Abs-Feuchte:Windchill:Wind:
Aussen-T/F 176 13-06-2019 07:00:00 10.31667 C 9.2 g/m*3 10.32 C 0.26667 km/h
177 13-06-2019 08:00:00 11.75 C 10.04 g/m*3 11.75 C 1.6 km/h
178 13-06-2019 09:00:00 15.15833 C 10.24 g/m*3 15.16 C 7.38333 km/h
179 13-06-2019 10:00:00 17.91667 C 9.95 g/m*3 17.92 C 10.075 km/h
180 13-06-2019 11:00:00 19.15 C 10 g/m*3 19.15 C 13.16667 km/h
181 13-06-2019 12:00:00 19.41667 C 9.52 g/m*3 19.42 C 11.825 km/h
182 13-06-2019 13:00:00 20.875 C 9.7 g/m*3 20.88 C 12.1 km/h
183 13-06-2019 14:00:00 21.26667 C 9.52 g/m*3 21.27 C 10.625 km/h
184 13-06-2019 15:00:00 22.13333 C 9.52 g/m*3 22.13 C 12.63333 km/h
185 13-06-2019 16:00:00 23.85833 C 9.12 g/m*3 23.86 C 16.23333 km/h
186 13-06-2019 17:00:00 24.41667 C 9.26 g/m*3 24.42 C 14.23333 km/h
187 13-06-2019 18:00:00 24.325 C 9.55 g/m*3 24.33 C 10.075 km/h
188 13-06-2019 19:00:00 20.40833 C 11.56 g/m*3 20.41 C 6.43333 km/h
189 13-06-2019 20:00:00 15.975 C 12.18 g/m*3 15.98 C 1.86667 km/h
190 13-06-2019 21:00:00 15.11667 C 11.49 g/m*3 15.12 C 0.13333 km/h
191 13-06-2019 22:00:00 13.21667 C 10.54 g/m*3 13.22 C 0 km/h
192 13-06-2019 23:00:00 12.78333 C 10.5 g/m*3 12.78 C 0 km/h
193 14-06-2019 00:00:00 12.06667 C 10.08 g/m*3 12.07 C 0 km/h
194 14-06-2019 01:00:00 11.73333 C 9.97 g/m*3 11.73 C 0 km/h
195 14-06-2019 02:00:00 12.16667 C 10.34 g/m*3 12.17 C 0.26667 km/h
196 14-06-2019 03:00:00 12.00833 C 10.24 g/m*3 12.01 C 0.93333 km/h
197 14-06-2019 04:00:00 11.59167 C 9.97 g/m*3 11.59 C 0.4 km/h
198 14-06-2019 05:00:00 11.41667 C 9.91 g/m*3 11.42 C 1.2 km/h
199 14-06-2019 06:00:00 11.33333 C 9.89 g/m*3 11.33 C 1.33333 km/h
200 14-06-2019 07:00:00 11.43333 C 9.98 g/m*3 11.43 C 0.66667 km/h
Sensor: Nr:Datum:Temp:Abs-Feuchte:Windchill:Wind:
Aussen-T/F 201 14-06-2019 08:00:00 12.15 C 10.43 g/m*3 12.15 C 0 km/h
202 14-06-2019 09:00:00 14.29167 C 12.01 g/m*3 14.29 C 0 km/h
203 14-06-2019 10:00:00 17.16667 C 14.32 g/m*3 17.17 C 0 km/h
204 14-06-2019 11:00:00 18.61667 C 15.29 g/m*3 18.62 C 0.53333 km/h
205 14-06-2019 12:00:00 21.65833 C 13.57 g/m*3 21.66 C 5.23333 km/h
206 14-06-2019 13:00:00 24.26667 C 12.72 g/m*3 24.27 C 7.525 km/h
207 14-06-2019 14:00:00 26 C 12.23 g/m*3 26 C 9.4 km/h
208 14-06-2019 15:00:00 26.35 C 12.58 g/m*3 26.35 C 5.625 km/h
209 14-06-2019 16:00:00 25.95 C 13.96 g/m*3 25.95 C 2.66667 km/h
210 14-06-2019 17:00:00 25.23333 C 15.34 g/m*3 25.23 C 2.00833 km/h
211 14-06-2019 18:00:00 24.49167 C 15.38 g/m*3 24.49 C 1.2 km/h
212 14-06-2019 19:00:00 22.55 C 14.87 g/m*3 22.55 C 0.4 km/h
213 14-06-2019 20:00:00 20.29167 C 13.77 g/m*3 20.29 C 1.06667 km/h
214 14-06-2019 21:00:00 19.08333 C 13.67 g/m*3 19.08 C 0.13333 km/h
215 14-06-2019 22:00:00 18.79167 C 13.48 g/m*3 18.79 C 0.53333 km/h
216 14-06-2019 23:00:00 18.6 C 13.77 g/m*3 18.6 C 0.8 km/h
217 15-06-2019 00:00:00 17.59167 C 13.73 g/m*3 17.59 C 0.66667 km/h
218 15-06-2019 01:00:00 16.49167 C 13.08 g/m*3 16.49 C 0 km/h
219 15-06-2019 02:00:00 15.68333 C 12.59 g/m*3 15.68 C 0 km/h
220 15-06-2019 03:00:00 15.16667 C 12.32 g/m*3 15.17 C 0 km/h
221 15-06-2019 04:00:00 15.14167 C 12.37 g/m*3 15.14 C 1.075 km/h
222 15-06-2019 05:00:00 15.01667 C 12.33 g/m*3 15.02 C 4.96667 km/h
223 15-06-2019 06:00:00 15.54167 C 12.78 g/m*3 15.54 C 2.54167 km/h
224 15-06-2019 07:00:00 16.175 C 13.36 g/m*3 16.18 C 0 km/h
225 15-06-2019 08:00:00 16.94167 C 13.9 g/m*3 16.94 C 6.575 km/h
Sensor: Nr:Datum:Temp:Abs-Feuchte:Windchill:Wind:
Aussen-T/F 226 15-06-2019 09:00:00 18.45833 C 14.19 g/m*3 18.46 C 12.76667 km/h
227 15-06-2019 10:00:00 19.93333 C 14.09 g/m*3 19.93 C 13.83333 km/h
228 15-06-2019 11:00:00 20.8 C 13.11 g/m*3 20.8 C 13.43333 km/h
229 15-06-2019 12:00:00 21.60833 C 13.2 g/m*3 21.61 C 10.75833 km/h
230 15-06-2019 13:00:00 21.28333 C 13.76 g/m*3 21.28 C 5.90833 km/h
231 15-06-2019 14:00:00 21.65833 C 13.99 g/m*3 21.66 C 6.71667 km/h
232 15-06-2019 15:00:00 22.11667 C 13.61 g/m*3 22.12 C 8.88333 km/h
233 15-06-2019 16:00:00 23.775 C 13.68 g/m*3 23.78 C 4.40833 km/h
234 15-06-2019 17:00:00 25.35833 C 12.86 g/m*3 25.36 C 7.78333 km/h
235 15-06-2019 18:00:00 26.24167 C 12.05 g/m*3 26.24 C 8.19167 km/h
236 15-06-2019 19:00:00 25.35833 C 12.7 g/m*3 25.36 C 4.29167 km/h
237 15-06-2019 20:00:00 23.43333 C 13.8 g/m*3 23.43 C 0.13333 km/h
238 15-06-2019 21:00:00 21.01667 C 13.03 g/m*3 21.02 C 0.13333 km/h
239 15-06-2019 22:00:00 18.48333 C 12.43 g/m*3 18.48 C 0.53333 km/h
240 15-06-2019 23:00:00 17.625 C 12.28 g/m*3 17.63 C 0.26667 km/h
241 16-06-2019 00:00:00 17.3 C 12.26 g/m*3 17.3 C 1.2 km/h
242 16-06-2019 01:00:00 17.4 C 12.31 g/m*3 17.4 C 1.06667 km/h
243 16-06-2019 02:00:00 17.19167 C 12.28 g/m*3 17.19 C 0.13333 km/h
244 16-06-2019 03:00:00 16.9 C 12.15 g/m*3 16.9 C 2 km/h
245 16-06-2019 04:00:00 17.08333 C 11.99 g/m*3 17.08 C 1.88333 km/h
246 16-06-2019 05:00:00 16.3 C 11.82 g/m*3 16.3 C 0.53333 km/h
247 16-06-2019 06:00:00 15.46667 C 11.8 g/m*3 15.47 C 0.66667 km/h
248 16-06-2019 07:00:00 15.55 C 12.11 g/m*3 15.55 C 0 km/h
249 16-06-2019 08:00:00 16.04167 C 12.26 g/m*3 16.04 C 0.8 km/h
250 16-06-2019 09:00:00 17.04167 C 11.79 g/m*3 17.04 C 3.46667 km/h
Sensor: Nr:Datum:Temp:Abs-Feuchte:Windchill:Wind:
Aussen-T/F 251 16-06-2019 10:00:00 19.3 C 11.57 g/m*3 19.3 C 5.08333 km/h
252 16-06-2019 11:00:00 20.84167 C 11.01 g/m*3 20.84 C 7.65833 km/h
253 16-06-2019 12:00:00 21.34167 C 11.06 g/m*3 21.34 C 10.225 km/h
254 16-06-2019 13:00:00 22.35 C 10.84 g/m*3 22.35 C 9.95833 km/h
255 16-06-2019 14:00:00 22.56667 C 11.21 g/m*3 22.57 C 10.36667 km/h
256 16-06-2019 15:00:00 23.03333 C 11.31 g/m*3 23.03 C 11.69167 km/h
257 16-06-2019 16:00:00 23.225 C 11.47 g/m*3 23.23 C 9.69167 km/h
258 16-06-2019 17:00:00 22.275 C 11.55 g/m*3 22.28 C 7.24167 km/h
259 16-06-2019 18:00:00 24.04167 C 11.29 g/m*3 24.04 C 6.725 km/h
260 16-06-2019 19:00:00 23.55 C 11.59 g/m*3 23.55 C 4.975 km/h
261 16-06-2019 20:00:00 22.61667 C 11.63 g/m*3 22.62 C 3.89167 km/h
262 16-06-2019 21:00:00 20.29167 C 11.91 g/m*3 20.29 C 0 km/h
263 16-06-2019 22:00:00 17.21667 C 11.23 g/m*3 17.22 C 0 km/h
264 16-06-2019 23:00:00 15.35 C 10.84 g/m*3 15.35 C 0 km/h
265 17-06-2019 00:00:00 14.14167 C 10.42 g/m*3 14.14 C 0 km/h
266 17-06-2019 01:00:00 13.31667 C 10.21 g/m*3 13.32 C 0 km/h
267 17-06-2019 02:00:00 12.625 C 10.02 g/m*3 12.63 C 0 km/h
268 17-06-2019 03:00:00 11.95833 C 9.76 g/m*3 11.96 C 0 km/h
269 17-06-2019 04:00:00 11.43333 C 9.57 g/m*3 11.43 C 0 km/h
270 17-06-2019 05:00:00 11.075 C 9.45 g/m*3 11.08 C 0 km/h
271 17-06-2019 06:00:00 11.08333 C 9.56 g/m*3 11.08 C 0 km/h
272 17-06-2019 07:00:00 11.575 C 9.88 g/m*3 11.58 C 0 km/h
273 17-06-2019 08:00:00 12.66667 C 10.66 g/m*3 12.67 C 0 km/h
274 17-06-2019 09:00:00 14.46667 C 11.77 g/m*3 14.47 C 0 km/h
275 17-06-2019 10:00:00 18.59167 C 13.06 g/m*3 18.59 C 1.875 km/h
Sensor: Nr:Datum:Temp:Abs-Feuchte:Windchill:Wind:
Aussen-T/F 276 17-06-2019 11:00:00 22.31667 C 12.45 g/m*3 22.32 C 6.15 km/h
277 17-06-2019 12:00:00 23.475 C 12.28 g/m*3 23.48 C 7.65 km/h
278 17-06-2019 13:00:00 24.45833 C 12.22 g/m*3 24.46 C 9.68333 km/h
279 17-06-2019 14:00:00 25.15833 C 11.79 g/m*3 25.16 C 7.94167 km/h
280 17-06-2019 15:00:00 25.26667 C 11.84 g/m*3 25.27 C 5.5 km/h
281 17-06-2019 16:00:00 26.71667 C 12.58 g/m*3 26.72 C 4.00833 km/h
282 17-06-2019 17:00:00 28.43333 C 11.74 g/m*3 28.43 C 6.15833 km/h
283 17-06-2019 18:00:00 27.90833 C 12.54 g/m*3 27.91 C 2.8 km/h
284 17-06-2019 19:00:00 27.64167 C 12.69 g/m*3 27.64 C 3.225 km/h
285 17-06-2019 20:00:00 23.58333 C 13 g/m*3 23.58 C 0 km/h
286 17-06-2019 21:00:00 20.78333 C 12.32 g/m*3 20.78 C 0 km/h
287 17-06-2019 22:00:00 18.73333 C 12.07 g/m*3 18.73 C 0 km/h
288 17-06-2019 23:00:00 17.06667 C 11.74 g/m*3 17.07 C 0 km/h
289 18-06-2019 00:00:00 15.86667 C 11.42 g/m*3 15.87 C 0 km/h
290 18-06-2019 01:00:00 15.09167 C 11.25 g/m*3 15.09 C 0 km/h
291 18-06-2019 02:00:00 14.43333 C 11.04 g/m*3 14.43 C 0 km/h
292 18-06-2019 03:00:00 13.8 C 10.88 g/m*3 13.8 C 0 km/h
293 18-06-2019 04:00:00 13.8 C 10.99 g/m*3 13.8 C 0 km/h
294 18-06-2019 05:00:00 13.625 C 10.89 g/m*3 13.63 C 0 km/h
295 18-06-2019 06:00:00 13.65 C 11.07 g/m*3 13.65 C 0.26667 km/h
296 18-06-2019 07:00:00 14.75 C 11.64 g/m*3 14.75 C 0.66667 km/h
297 18-06-2019 08:00:00 16.01667 C 12.27 g/m*3 16.02 C 0 km/h
298 18-06-2019 09:00:00 17.65 C 13.28 g/m*3 17.65 C 0.13333 km/h
299 18-06-2019 10:00:00 20.80833 C 14.92 g/m*3 20.81 C 0 km/h
300 18-06-2019 11:00:00 24.26667 C 14.98 g/m*3 24.27 C 3.35 km/h
Sensor: Nr:Datum:Temp:Abs-Feuchte:Windchill:Wind:
Aussen-T/F 301 18-06-2019 12:00:00 26.78333 C 13.71 g/m*3 26.78 C 4.825 km/h
302 18-06-2019 13:00:00 28.125 C 12.87 g/m*3 28.13 C 7.51667 km/h
303 18-06-2019 14:00:00 28.825 C 12.9 g/m*3 28.83 C 8.45833 km/h
304 18-06-2019 15:00:00 29.825 C 13.07 g/m*3 29.83 C 7.925 km/h
305 18-06-2019 16:00:00 29.575 C 13.66 g/m*3 29.58 C 3.34167 km/h
306 18-06-2019 17:00:00 29.48333 C 16.64 g/m*3 29.48 C 0.8 km/h
307 18-06-2019 18:00:00 29.725 C 16.48 g/m*3 29.73 C 0.4 km/h
308 18-06-2019 19:00:00 27.95 C 16.43 g/m*3 27.95 C 0 km/h
309 18-06-2019 20:00:00 26.03333 C 15.55 g/m*3 26.03 C 0 km/h
310 18-06-2019 21:00:00 23.73333 C 14.59 g/m*3 23.73 C 0 km/h
311 18-06-2019 22:00:00 21.45 C 14.02 g/m*3 21.45 C 0 km/h
312 18-06-2019 23:00:00 19.83333 C 13.62 g/m*3 19.83 C 0 km/h
313 19-06-2019 00:00:00 18.48333 C 13.21 g/m*3 18.48 C 0 km/h
314 19-06-2019 01:00:00 17.61667 C 13 g/m*3 17.62 C 0 km/h
315 19-06-2019 02:00:00 17.39167 C 13.08 g/m*3 17.39 C 0 km/h
316 19-06-2019 03:00:00 16.53333 C 12.64 g/m*3 16.53 C 0 km/h
317 19-06-2019 04:00:00 15.775 C 12.23 g/m*3 15.78 C 0 km/h
318 19-06-2019 05:00:00 15.19167 C 12.04 g/m*3 15.19 C 0 km/h
319 19-06-2019 06:00:00 14.99167 C 12 g/m*3 14.99 C 0 km/h
320 19-06-2019 07:00:00 15.425 C 12.48 g/m*3 15.43 C 0 km/h
321 19-06-2019 08:00:00 16.54167 C 13.37 g/m*3 16.54 C 0 km/h
322 19-06-2019 09:00:00 18.46667 C 14.82 g/m*3 18.47 C 0 km/h
323 19-06-2019 10:00:00 23.44167 C 15.47 g/m*3 23.44 C 6.04167 km/h
324 19-06-2019 11:00:00 26.775 C 13.75 g/m*3 26.78 C 12.08333 km/h
325 19-06-2019 12:00:00 26.475 C 14.89 g/m*3 26.48 C 4.3 km/h
Sensor: Nr:Datum:Temp:Abs-Feuchte:Windchill:Wind:
Aussen-T/F 326 19-06-2019 13:00:00 26 C 15.34 g/m*3 26 C 4.69167 km/h
327 19-06-2019 14:00:00 27.00833 C 13.78 g/m*3 27.01 C 9.39167 km/h
328 19-06-2019 15:00:00 27.25 C 14.83 g/m*3 27.25 C 11.68333 km/h
329 19-06-2019 16:00:00 29.925 C 14.7 g/m*3 29.93 C 8.2 km/h
330 19-06-2019 17:00:00 31.25833 C 13.39 g/m*3 31.26 C 7.39167 km/h
331 19-06-2019 18:00:00 28.4 C 15.73 g/m*3 28.4 C 0.26667 km/h
332 19-06-2019 19:00:00 28.94167 C 15.2 g/m*3 28.94 C 3.34167 km/h
333 19-06-2019 20:00:00 25.31667 C 15.31 g/m*3 25.32 C 0.53333 km/h
334 19-06-2019 21:00:00 23.275 C 14.79 g/m*3 23.28 C 0 km/h
335 19-06-2019 22:00:00 21.68333 C 14.1 g/m*3 21.68 C 0.8 km/h
336 19-06-2019 23:00:00 19.925 C 13.74 g/m*3 19.93 C 0 km/h
337 20-06-2019 00:00:00 18.75 C 13.38 g/m*3 18.75 C 0 km/h
338 20-06-2019 01:00:00 17.98333 C 13.23 g/m*3 17.98 C 0 km/h
339 20-06-2019 02:00:00 17.45833 C 13.2 g/m*3 17.46 C 0.13333 km/h
340 20-06-2019 03:00:00 17.7 C 13.5 g/m*3 17.7 C 1.73333 km/h
341 20-06-2019 04:00:00 17.31667 C 13.21 g/m*3 17.32 C 1.33333 km/h
342 20-06-2019 05:00:00 16.68333 C 12.97 g/m*3 16.68 C 0.26667 km/h
343 20-06-2019 06:00:00 16.85833 C 13.25 g/m*3 16.86 C 0.8 km/h
344 20-06-2019 07:00:00 17.73333 C 13.49 g/m*3 17.73 C 3.60833 km/h
345 20-06-2019 08:00:00 19.45 C 13.62 g/m*3 19.45 C 8.75 km/h
346 20-06-2019 09:00:00 20.2 C 13.27 g/m*3 20.2 C 11.7 km/h
347 20-06-2019 10:00:00 21.30833 C 13.19 g/m*3 21.31 C 13.3 km/h
348 20-06-2019 11:00:00 21.89167 C 13.49 g/m*3 21.89 C 12.23333 km/h
349 20-06-2019 12:00:00 22.65 C 13.4 g/m*3 22.65 C 13.3 km/h
350 20-06-2019 13:00:00 23.24167 C 13.49 g/m*3 23.24 C 9.41667 km/h
Sensor: Nr:Datum:Temp:Abs-Feuchte:Windchill:Wind:
Aussen-T/F 351 20-06-2019 14:00:00 24.61667 C 13.24 g/m*3 24.62 C 11.025 km/h
352 20-06-2019 15:00:00 21.45833 C 14.12 g/m*3 21.46 C 11.41667 km/h
353 20-06-2019 16:00:00 22.75 C 14.57 g/m*3 22.75 C 8.875 km/h
354 20-06-2019 17:00:00 21.25833 C 14.23 g/m*3 21.26 C 7.51667 km/h
355 20-06-2019 18:00:00 20 C 14.01 g/m*3 20 C 8.86667 km/h
356 20-06-2019 19:00:00 18.75833 C 13.15 g/m*3 18.76 C 3.75 km/h
357 20-06-2019 20:00:00 18.66667 C 13.16 g/m*3 18.67 C 0.53333 km/h
358 20-06-2019 21:00:00 18.21667 C 13.08 g/m*3 18.22 C 0 km/h
359 20-06-2019 22:00:00 16.9 C 12.51 g/m*3 16.9 C 0 km/h
360 20-06-2019 23:00:00 15.725 C 12.15 g/m*3 15.73 C 0 km/h
361 21-06-2019 00:00:00 15.5 C 12.36 g/m*3 15.5 C 0.4 km/h
362 21-06-2019 01:00:00 14.89167 C 11.85 g/m*3 14.89 C 0 km/h
363 21-06-2019 02:00:00 14.78333 C 11.94 g/m*3 14.78 C 0 km/h
364 21-06-2019 03:00:00 15.06667 C 12.13 g/m*3 15.07 C 0 km/h
365 21-06-2019 04:00:00 14.91667 C 12.01 g/m*3 14.92 C 0 km/h
366 21-06-2019 05:00:00 14.325 C 11.56 g/m*3 14.33 C 0 km/h
367 21-06-2019 06:00:00 14.175 C 11.39 g/m*3 14.18 C 0 km/h
368 21-06-2019 07:00:00 14.63333 C 11.62 g/m*3 14.63 C 0 km/h
369 21-06-2019 08:00:00 15.88333 C 10.74 g/m*3 15.88 C 5.225 km/h
370 21-06-2019 09:00:00 16.7 C 10.41 g/m*3 16.7 C 4.94167 km/h
371 21-06-2019 10:00:00 18.28333 C 10.39 g/m*3 18.28 C 6.44167 km/h
372 21-06-2019 11:00:00 19.45 C 10.21 g/m*3 19.45 C 4.26667 km/h
373 21-06-2019 12:00:00 20.10833 C 10.13 g/m*3 20.11 C 7.65833 km/h
374 21-06-2019 13:00:00 21.3 C 9.82 g/m*3 21.3 C 8.875 km/h
375 21-06-2019 14:00:00 22.03333 C 9.22 g/m*3 22.03 C 8.725 km/h
Sensor: Nr:Datum:Temp:Abs-Feuchte:Windchill:Wind:
Aussen-T/F 376 21-06-2019 15:00:00 22.6 C 9.29 g/m*3 22.6 C 6.975 km/h
377 21-06-2019 16:00:00 23.64167 C 9.22 g/m*3 23.64 C 6.85 km/h
378 21-06-2019 17:00:00 25.125 C 9.16 g/m*3 25.13 C 9.15833 km/h
379 21-06-2019 18:00:00 24.95833 C 9.07 g/m*3 24.96 C 12.48333 km/h
380 21-06-2019 19:00:00 23.63333 C 9.13 g/m*3 23.63 C 11.43333 km/h
381 21-06-2019 20:00:00 22.15 C 9.23 g/m*3 22.15 C 10.21667 km/h
382 21-06-2019 21:00:00 19.375 C 9.52 g/m*3 19.38 C 2.68333 km/h
383 21-06-2019 22:00:00 16.6 C 9.38 g/m*3 16.6 C 0 km/h
384 21-06-2019 23:00:00 15.23333 C 9.43 g/m*3 15.23 C 0 km/h
385 22-06-2019 00:00:00 13.71667 C 9.36 g/m*3 13.72 C 0 km/h
386 22-06-2019 01:00:00 13.01667 C 9.34 g/m*3 13.02 C 0 km/h
387 22-06-2019 02:00:00 12.10833 C 9.19 g/m*3 12.11 C 0 km/h
388 22-06-2019 03:00:00 11.5 C 9.14 g/m*3 11.5 C 0 km/h
389 22-06-2019 04:00:00 11.05833 C 9.08 g/m*3 11.06 C 0 km/h
390 22-06-2019 05:00:00 10.675 C 9 g/m*3 10.68 C 0 km/h
391 22-06-2019 06:00:00 10.70833 C 9.14 g/m*3 10.71 C 0 km/h
392 22-06-2019 07:00:00 11.80833 C 9.93 g/m*3 11.81 C 0 km/h
393 22-06-2019 08:00:00 13.84167 C 10.82 g/m*3 13.84 C 0.4 km/h
394 22-06-2019 09:00:00 16.275 C 11.06 g/m*3 16.27 C 1.06667 km/h
395 22-06-2019 10:00:00 19.475 C 11.26 g/m*3 19.48 C 6.29167 km/h
396 22-06-2019 11:00:00 21.21667 C 11.53 g/m*3 21.22 C 10.09167 km/h
397 22-06-2019 12:00:00 22.66667 C 12.02 g/m*3 22.67 C 9.55 km/h
398 22-06-2019 13:00:00 24.175 C 12.23 g/m*3 24.18 C 10.89167 km/h
399 22-06-2019 14:00:00 25.025 C 12.43 g/m*3 25.03 C 10.75 km/h
400 22-06-2019 15:00:00 25.59167 C 11.88 g/m*3 25.59 C 9.14167 km/h
Sensor: Nr:Datum:Temp:Abs-Feuchte:Windchill:Wind:
Aussen-T/F 401 22-06-2019 16:00:00 26.50833 C 11.81 g/m*3 26.51 C 6.70833 km/h
402 22-06-2019 17:00:00 26.26667 C 12.03 g/m*3 26.27 C 5.61667 km/h
403 22-06-2019 18:00:00 27.45 C 11.48 g/m*3 27.45 C 10.1 km/h
404 22-06-2019 19:00:00 27.53333 C 11.6 g/m*3 27.53 C 10.09167 km/h
405 22-06-2019 20:00:00 26.95 C 12.36 g/m*3 26.95 C 9.95833 km/h
406 22-06-2019 21:00:00 23.525 C 13.2 g/m*3 23.53 C 2.54167 km/h
407 22-06-2019 22:00:00 20.3 C 12.85 g/m*3 20.3 C 0.13333 km/h
408 22-06-2019 23:00:00 18.63333 C 12.65 g/m*3 18.63 C 0 km/h
409 23-06-2019 00:00:00 17.4 C 12.37 g/m*3 17.4 C 0 km/h
410 23-06-2019 01:00:00 16.33333 C 12.08 g/m*3 16.33 C 0 km/h
411 23-06-2019 02:00:00 15.64167 C 11.9 g/m*3 15.64 C 0 km/h
412 23-06-2019 03:00:00 14.98333 C 11.66 g/m*3 14.98 C 0 km/h
413 23-06-2019 04:00:00 14.53333 C 11.5 g/m*3 14.53 C 0 km/h
414 23-06-2019 05:00:00 14.075 C 11.31 g/m*3 14.08 C 0 km/h
415 23-06-2019 06:00:00 14.20833 C 11.5 g/m*3 14.21 C 0 km/h
416 23-06-2019 07:00:00 14.74167 C 11.98 g/m*3 14.74 C 0 km/h
417 23-06-2019 08:00:00 16.09167 C 12.96 g/m*3 16.09 C 0.26667 km/h
418 23-06-2019 09:00:00 18.65833 C 13.81 g/m*3 18.66 C 3.75833 km/h
419 23-06-2019 10:00:00 22.525 C 13.8 g/m*3 22.53 C 10.75833 km/h
420 23-06-2019 11:00:00 24.14167 C 14.11 g/m*3 24.14 C 11.29167 km/h
421 23-06-2019 12:00:00 25.21667 C 14.33 g/m*3 25.22 C 10.75833 km/h
422 23-06-2019 13:00:00 26.58333 C 14.08 g/m*3 26.58 C 10.48333 km/h
423 23-06-2019 14:00:00 27.84167 C 13.77 g/m*3 27.84 C 14.09167 km/h
424 23-06-2019 15:00:00 28.575 C 13.54 g/m*3 28.58 C 8.35833 km/h
425 23-06-2019 16:00:00 30.24167 C 13.26 g/m*3 30.24 C 10.20833 km/h
Sensor: Nr:Datum:Temp:Abs-Feuchte:Windchill:Wind:
Aussen-T/F 426 23-06-2019 17:00:00 30.6 C 13.52 g/m*3 30.6 C 9.94167 km/h
427 23-06-2019 18:00:00 30.3 C 13.61 g/m*3 30.3 C 7.375 km/h
428 23-06-2019 19:00:00 29.025 C 14.48 g/m*3 29.03 C 4.00833 km/h
429 23-06-2019 20:00:00 25.85833 C 14.98 g/m*3 25.86 C 0 km/h
430 23-06-2019 21:00:00 23.39167 C 14.22 g/m*3 23.39 C 0 km/h
431 23-06-2019 22:00:00 21.70833 C 13.8 g/m*3 21.71 C 0 km/h
432 23-06-2019 23:00:00 20.25 C 13.65 g/m*3 20.25 C 0 km/h
433 24-06-2019 00:00:00 19.11667 C 13.48 g/m*3 19.12 C 0 km/h
434 24-06-2019 01:00:00 18.43333 C 13.29 g/m*3 18.43 C 0 km/h
435 24-06-2019 02:00:00 17.54167 C 13.02 g/m*3 17.54 C 0 km/h
436 24-06-2019 03:00:00 16.95833 C 12.86 g/m*3 16.96 C 0 km/h
437 24-06-2019 04:00:00 16.55 C 12.77 g/m*3 16.55 C 0 km/h
438 24-06-2019 05:00:00 16.40833 C 12.86 g/m*3 16.41 C 0 km/h
439 24-06-2019 06:00:00 16.70833 C 13.21 g/m*3 16.71 C 0 km/h
440 24-06-2019 07:00:00 17.45 C 13.81 g/m*3 17.45 C 0 km/h
441 24-06-2019 08:00:00 18.55 C 14.56 g/m*3 18.55 C 0 km/h
442 24-06-2019 09:00:00 21.25833 C 15.74 g/m*3 21.26 C 3.74167 km/h
443 24-06-2019 10:00:00 25.475 C 15.86 g/m*3 25.48 C 8.33333 km/h
444 24-06-2019 11:00:00 26.95833 C 15.32 g/m*3 26.96 C 8.325 km/h
445 24-06-2019 12:00:00 27.88333 C 15 g/m*3 27.88 C 12.63333 km/h
446 24-06-2019 13:00:00 29.05833 C 14.98 g/m*3 29.06 C 15.03333 km/h
447 24-06-2019 14:00:00 30.1 C 15.19 g/m*3 30.1 C 10.9 km/h
448 24-06-2019 15:00:00 31.38333 C 15.3 g/m*3 31.38 C 12.1 km/h
449 24-06-2019 16:00:00 32.73333 C 15.44 g/m*3 32.73 C 9.68333 km/h
450 24-06-2019 17:00:00 32.96667 C 15.84 g/m*3 32.97 C 9.55 km/h
Sensor: Nr:Datum:Temp:Abs-Feuchte:Windchill:Wind:
Aussen-T/F 451 24-06-2019 18:00:00 33.1 C 15.75 g/m*3 33.1 C 9.40833 km/h
452 24-06-2019 19:00:00 32.375 C 15.67 g/m*3 32.38 C 8.06667 km/h
453 24-06-2019 20:00:00 30.64167 C 15.85 g/m*3 30.64 C 6.425 km/h
454 24-06-2019 21:00:00 26.81667 C 16.24 g/m*3 26.82 C 0.13333 km/h
455 24-06-2019 22:00:00 23.99167 C 15.44 g/m*3 23.99 C 0 km/h
456 24-06-2019 23:00:00 22.68333 C 14.94 g/m*3 22.68 C 0 km/h
457 25-06-2019 00:00:00 21.4 C 14.53 g/m*3 21.4 C 0 km/h
458 25-06-2019 01:00:00 20.425 C 14.32 g/m*3 20.43 C 0 km/h
459 25-06-2019 02:00:00 19.35833 C 13.91 g/m*3 19.36 C 0 km/h
460 25-06-2019 03:00:00 18.46667 C 13.51 g/m*3 18.47 C 0 km/h
461 25-06-2019 04:00:00 17.825 C 13.39 g/m*3 17.83 C 0 km/h
462 25-06-2019 05:00:00 17.51667 C 13.34 g/m*3 17.52 C 0 km/h
463 25-06-2019 06:00:00 17.76667 C 13.76 g/m*3 17.77 C 0 km/h
464 25-06-2019 07:00:00 18.44167 C 14.3 g/m*3 18.44 C 0 km/h
465 25-06-2019 08:00:00 20.1 C 15.38 g/m*3 20.1 C 0 km/h
466 25-06-2019 09:00:00 22.56667 C 16.39 g/m*3 22.57 C 2.40833 km/h
467 25-06-2019 10:00:00 26.46667 C 16.43 g/m*3 26.47 C 6.15833 km/h
468 25-06-2019 11:00:00 28.05833 C 16.16 g/m*3 28.06 C 5.9 km/h
469 25-06-2019 12:00:00 29.51667 C 16.49 g/m*3 29.52 C 6.03333 km/h
470 25-06-2019 13:00:00 31.1 C 16.73 g/m*3 31.1 C 7.375 km/h
471 25-06-2019 14:00:00 32.75833 C 16.49 g/m*3 32.76 C 8.725 km/h
472 25-06-2019 15:00:00 34.91667 C 16.43 g/m*3 34.92 C 10.23333 km/h
473 25-06-2019 16:00:00 36.45833 C 16.24 g/m*3 36.46 C 8.06667 km/h
474 25-06-2019 17:00:00 37.69167 C 14.95 g/m*3 37.69 C 8.06667 km/h
475 25-06-2019 18:00:00 36.71667 C 15.88 g/m*3 36.72 C 7.25833 km/h
Sensor: Nr:Datum:Temp:Abs-Feuchte:Windchill:Wind:
Aussen-T/F 476 25-06-2019 19:00:00 34.225 C 18.41 g/m*3 34.23 C 1.33333 km/h
477 25-06-2019 20:00:00 31.78333 C 17.41 g/m*3 31.78 C 0.26667 km/h
478 25-06-2019 21:00:00 28.025 C 16.04 g/m*3 28.03 C 0.26667 km/h
479 25-06-2019 22:00:00 25.60833 C 15.24 g/m*3 25.61 C 0.4 km/h
480 25-06-2019 23:00:00 24.15833 C 14.47 g/m*3 24.16 C 0 km/h
481 26-06-2019 00:00:00 23.41667 C 14.63 g/m*3 23.42 C 0.13333 km/h
482 26-06-2019 01:00:00 22.38333 C 14.72 g/m*3 22.38 C 1.06667 km/h
483 26-06-2019 02:00:00 21.20833 C 14.65 g/m*3 21.21 C 0.4 km/h
484 26-06-2019 03:00:00 20.575 C 14.64 g/m*3 20.58 C 0.4 km/h
485 26-06-2019 04:00:00 19.825 C 14.44 g/m*3 19.83 C 0 km/h
486 26-06-2019 05:00:00 19.475 C 14.5 g/m*3 19.48 C 0.66667 km/h
487 26-06-2019 06:00:00 19.575 C 14.81 g/m*3 19.58 C 0.26667 km/h
488 26-06-2019 07:00:00 20.03333 C 15.24 g/m*3 20.03 C 0.53333 km/h
489 26-06-2019 08:00:00 22.7 C 17.68 g/m*3 22.7 C 0 km/h
490 26-06-2019 09:00:00 24.64167 C 18.72 g/m*3 24.64 C 4.15 km/h
491 26-06-2019 10:00:00 27.25 C 19.33 g/m*3 27.25 C 4.275 km/h
492 26-06-2019 11:00:00 28.95 C 19.53 g/m*3 28.95 C 7.24167 km/h
493 26-06-2019 12:00:00 30.24167 C 19.3 g/m*3 30.24 C 6.575 km/h
494 26-06-2019 13:00:00 31.63333 C 17.57 g/m*3 31.63 C 8.08333 km/h
495 26-06-2019 14:00:00 32.64167 C 17.64 g/m*3 32.64 C 9.15 km/h
496 26-06-2019 15:00:00 33.9 C 18.51 g/m*3 33.9 C 9.825 km/h
497 26-06-2019 16:00:00 34.76667 C 17.9 g/m*3 34.77 C 11.3 km/h
498 26-06-2019 17:00:00 34.76667 C 17.18 g/m*3 34.77 C 11.16667 km/h
499 26-06-2019 18:00:00 34.36667 C 16 g/m*3 34.37 C 11.96667 km/h
500 26-06-2019 19:00:00 33.36667 C 15.82 g/m*3 33.37 C 10.76667 km/h
Sensor: Nr:Datum:Temp:Abs-Feuchte:Windchill:Wind:
Aussen-T/F 501 26-06-2019 20:00:00 30.94167 C 16.03 g/m*3 30.94 C 8.34167 km/h
502 26-06-2019 21:00:00 28.8 C 16.05 g/m*3 28.8 C 2.93333 km/h
503 26-06-2019 22:00:00 26.4 C 16.24 g/m*3 26.4 C 2.68333 km/h
504 26-06-2019 23:00:00 26.03333 C 16.91 g/m*3 26.03 C 5.63333 km/h
505 27-06-2019 00:00:00 25.24167 C 17.03 g/m*3 25.24 C 5.89167 km/h
506 27-06-2019 01:00:00 24.11667 C 16.75 g/m*3 24.12 C 4.675 km/h
507 27-06-2019 02:00:00 23.25833 C 16.37 g/m*3 23.26 C 2.66667 km/h
508 27-06-2019 03:00:00 22.41667 C 15.51 g/m*3 22.42 C 4.40833 km/h
509 27-06-2019 04:00:00 21.66667 C 14.66 g/m*3 21.67 C 6.025 km/h
510 27-06-2019 05:00:00 20.54167 C 14.17 g/m*3 20.54 C 3.20833 km/h
511 27-06-2019 06:00:00 20.01667 C 13.97 g/m*3 20.02 C 1.86667 km/h
512 27-06-2019 07:00:00 20.03333 C 13.81 g/m*3 20.03 C 6.41667 km/h
513 27-06-2019 08:00:00 20.6 C 13.87 g/m*3 20.6 C 6.01667 km/h
514 27-06-2019 09:00:00 21.45833 C 13.92 g/m*3 21.46 C 8.35 km/h
515 27-06-2019 10:00:00 22.83333 C 13.84 g/m*3 22.83 C 10.09167 km/h
516 27-06-2019 11:00:00 24.03333 C 13.53 g/m*3 24.03 C 9.14167 km/h
517 27-06-2019 12:00:00 24.84167 C 13.44 g/m*3 24.84 C 12.1 km/h
518 27-06-2019 13:00:00 25.875 C 12.87 g/m*3 25.88 C 10.63333 km/h
519 27-06-2019 14:00:00 26.98333 C 12.43 g/m*3 26.98 C 11.43333 km/h
520 27-06-2019 15:00:00 28.6 C 11.55 g/m*3 28.6 C 12.9 km/h
521 27-06-2019 16:00:00 30.18333 C 9.93 g/m*3 30.18 C 13.56667 km/h
522 27-06-2019 17:00:00 30.54167 C 8.74 g/m*3 30.54 C 13.83333 km/h
523 27-06-2019 18:00:00 30.225 C 8.08 g/m*3 30.23 C 12.1 km/h
524 27-06-2019 19:00:00 29.59167 C 7.64 g/m*3 29.59 C 11.3 km/h
525 27-06-2019 20:00:00 27.43333 C 8.57 g/m*3 27.43 C 8.475 km/h
Sensor: Nr:Datum:Temp:Abs-Feuchte:Windchill:Wind:
Aussen-T/F 526 27-06-2019 21:00:00 24.48333 C 9.32 g/m*3 24.48 C 3.46667 km/h
527 27-06-2019 22:00:00 21.28333 C 10.24 g/m*3 21.28 C 1.46667 km/h
528 27-06-2019 23:00:00 19.9 C 10.45 g/m*3 19.9 C 1.33333 km/h
529 28-06-2019 00:00:00 18.53333 C 10.48 g/m*3 18.53 C 0 km/h
530 28-06-2019 01:00:00 17.18333 C 10.48 g/m*3 17.18 C 0 km/h
531 28-06-2019 02:00:00 16.26667 C 10.59 g/m*3 16.27 C 0 km/h
532 28-06-2019 03:00:00 15.48333 C 10.6 g/m*3 15.48 C 0 km/h
533 28-06-2019 04:00:00 14.35 C 10.38 g/m*3 14.35 C 0 km/h
534 28-06-2019 05:00:00 13.51667 C 10.24 g/m*3 13.52 C 0 km/h
535 28-06-2019 06:00:00 13.35833 C 10.41 g/m*3 13.36 C 0 km/h
536 28-06-2019 07:00:00 13.86667 C 10.87 g/m*3 13.87 C 0 km/h
537 28-06-2019 08:00:00 15.39167 C 11.23 g/m*3 15.39 C 2.4 km/h
538 28-06-2019 09:00:00 17.7 C 11.3 g/m*3 17.7 C 3.73333 km/h
539 28-06-2019 10:00:00 19.81667 C 11.53 g/m*3 19.82 C 5.20833 km/h
540 28-06-2019 11:00:00 21.475 C 11.36 g/m*3 21.48 C 6.3 km/h
541 28-06-2019 12:00:00 22.84167 C 11.34 g/m*3 22.84 C 8.05833 km/h
542 28-06-2019 13:00:00 24.66667 C 10.67 g/m*3 24.67 C 9.81667 km/h
543 28-06-2019 14:00:00 26.31667 C 10.49 g/m*3 26.32 C 8.89167 km/h
544 28-06-2019 15:00:00 28.225 C 10.62 g/m*3 28.23 C 8.05 km/h
545 28-06-2019 16:00:00 30.25 C 10.32 g/m*3 30.25 C 8.86667 km/h
546 28-06-2019 17:00:00 31.13333 C 9.59 g/m*3 31.13 C 8.58333 km/h
547 28-06-2019 18:00:00 31.66667 C 9.29 g/m*3 31.67 C 7.65 km/h
548 28-06-2019 19:00:00 31.2 C 9.73 g/m*3 31.2 C 6.56667 km/h
549 28-06-2019 20:00:00 29.49167 C 10.87 g/m*3 29.49 C 4.3 km/h
550 28-06-2019 21:00:00 25.61667 C 11.48 g/m*3 25.62 C 0.8 km/h
Sensor: Nr:Datum:Temp:Abs-Feuchte:Windchill:Wind:
Aussen-T/F 551 28-06-2019 22:00:00 21.58333 C 10.36 g/m*3 21.58 C 0.4 km/h
552 28-06-2019 23:00:00 19.275 C 10.54 g/m*3 19.27 C 0 km/h
553 29-06-2019 00:00:00 18.40833 C 10.37 g/m*3 18.41 C 0.4 km/h
554 29-06-2019 01:00:00 17.83333 C 10.35 g/m*3 17.83 C 0.53333 km/h
555 29-06-2019 02:00:00 17.09167 C 10.32 g/m*3 17.09 C 0.13333 km/h
556 29-06-2019 03:00:00 16.39167 C 10.37 g/m*3 16.39 C 0 km/h
557 29-06-2019 04:00:00 15.175 C 10.18 g/m*3 15.18 C 0 km/h
558 29-06-2019 05:00:00 14.09167 C 10.04 g/m*3 14.09 C 0 km/h
559 29-06-2019 06:00:00 13.70833 C 10.13 g/m*3 13.71 C 0 km/h
560 29-06-2019 07:00:00 14.075 C 10.62 g/m*3 14.08 C 0 km/h
561 29-06-2019 08:00:00 15.26667 C 11.33 g/m*3 15.27 C 0 km/h
562 29-06-2019 09:00:00 19.2 C 11.79 g/m*3 19.2 C 6.16667 km/h
563 29-06-2019 10:00:00 23.49167 C 11.64 g/m*3 23.49 C 9 km/h
564 29-06-2019 11:00:00 25.775 C 11.54 g/m*3 25.78 C 7.925 km/h
565 29-06-2019 12:00:00 27.41667 C 11.74 g/m*3 27.42 C 10.89167 km/h
566 29-06-2019 13:00:00 29.11667 C 10.24 g/m*3 29.12 C 11.69167 km/h
567 29-06-2019 14:00:00 30.58333 C 9.54 g/m*3 30.58 C 11.13333 km/h
568 29-06-2019 15:00:00 32.63333 C 9.25 g/m*3 32.63 C 10.75 km/h
569 29-06-2019 16:00:00 34.24167 C 8.93 g/m*3 34.24 C 12.09167 km/h
570 29-06-2019 17:00:00 35.325 C 8.95 g/m*3 35.33 C 7.78333 km/h
571 29-06-2019 18:00:00 35.64167 C 9.23 g/m*3 35.64 C 7.38333 km/h
572 29-06-2019 19:00:00 35.26667 C 9.39 g/m*3 35.27 C 4.66667 km/h
573 29-06-2019 20:00:00 32.425 C 11.77 g/m*3 32.42 C 1.06667 km/h
574 29-06-2019 21:00:00 27.60833 C 10.67 g/m*3 27.61 C 1.6 km/h
575 29-06-2019 22:00:00 24.225 C 10.01 g/m*3 24.23 C 1.2 km/h
Sensor: Nr:Datum:Temp:Abs-Feuchte:Windchill:Wind:
Aussen-T/F 576 29-06-2019 23:00:00 21.23333 C 10.66 g/m*3 21.23 C 0 km/h
577 30-06-2019 00:00:00 18.93333 C 10.69 g/m*3 18.93 C 0 km/h
578 30-06-2019 01:00:00 17.525 C 10.78 g/m*3 17.52 C 0 km/h
579 30-06-2019 02:00:00 16.75 C 10.77 g/m*3 16.75 C 0 km/h
580 30-06-2019 03:00:00 16.10833 C 10.8 g/m*3 16.11 C 0 km/h
581 30-06-2019 04:00:00 15.58333 C 10.81 g/m*3 15.58 C 0.26667 km/h
582 30-06-2019 05:00:00 15.05 C 10.75 g/m*3 15.05 C 0 km/h
583 30-06-2019 06:00:00 14.85 C 10.99 g/m*3 14.85 C 0 km/h
584 30-06-2019 07:00:00 15.44167 C 11.57 g/m*3 15.44 C 0.13333 km/h
585 30-06-2019 08:00:00 17.025 C 12.52 g/m*3 17.02 C 0 km/h
586 30-06-2019 09:00:00 19.65833 C 13.82 g/m*3 19.66 C 0 km/h
587 30-06-2019 10:00:00 25.225 C 15.09 g/m*3 25.23 C 5.64167 km/h
588 30-06-2019 11:00:00 30.59167 C 14.17 g/m*3 30.59 C 12.76667 km/h
589 30-06-2019 12:00:00 32.48333 C 13.85 g/m*3 32.48 C 8.61667 km/h
590 30-06-2019 13:00:00 34.6 C 13.55 g/m*3 34.6 C 11.7 km/h
591 30-06-2019 14:00:00 36.00833 C 14.3 g/m*3 36.01 C 15.03333 km/h
592 30-06-2019 15:00:00 35.5 C 16.53 g/m*3 35.5 C 14.9 km/h
593 30-06-2019 16:00:00 35.49167 C 18.25 g/m*3 35.49 C 10.75 km/h
594 30-06-2019 17:00:00 35.875 C 18.86 g/m*3 35.88 C 8.34167 km/h
595 30-06-2019 18:00:00 34.975 C 18.29 g/m*3 34.98 C 10.23333 km/h
596 30-06-2019 19:00:00 32.65833 C 17.71 g/m*3 32.66 C 11.01667 km/h
597 30-06-2019 20:00:00 29.35 C 17.22 g/m*3 29.35 C 13.43333 km/h
598 30-06-2019 21:00:00 27.18333 C 16.25 g/m*3 27.18 C 8.6 km/h
599 30-06-2019 22:00:00 26.25833 C 15.72 g/m*3 26.26 C 7.10833 km/h
600 30-06-2019 23:00:00 24.55833 C 15.04 g/m*3 24.56 C 2.66667 km/h
Sensor: Nr:Datum:Temp:Abs-Feuchte:Windchill:Wind:
Aussen-T/F 601 01-07-2019 00:00:00 22.68333 C 14.75 g/m*3 22.68 C 1.46667 km/h
602 01-07-2019 01:00:00 22.36667 C 14.49 g/m*3 22.37 C 4.025 km/h
603 01-07-2019 02:00:00 21.63333 C 14.05 g/m*3 21.63 C 1.06667 km/h
604 01-07-2019 03:00:00 20.98333 C 13.19 g/m*3 20.98 C 2.68333 km/h
605 01-07-2019 04:00:00 20.34167 C 12.65 g/m*3 20.34 C 0 km/h
606 01-07-2019 05:00:00 19.65833 C 12.38 g/m*3 19.66 C 0.66667 km/h
607 01-07-2019 06:00:00 19.68333 C 12.03 g/m*3 19.68 C 1.06667 km/h
608 01-07-2019 07:00:00 19.675 C 12.02 g/m*3 19.68 C 4.40833 km/h
609 01-07-2019 08:00:00 19.79167 C 12.06 g/m*3 19.79 C 2.4 km/h
610 01-07-2019 09:00:00 20.24167 C 12.14 g/m*3 20.24 C 4.675 km/h
611 01-07-2019 10:00:00 21.20833 C 12.76 g/m*3 21.21 C 6.84167 km/h
612 01-07-2019 11:00:00 21.78333 C 13.27 g/m*3 21.78 C 9.80833 km/h
613 01-07-2019 12:00:00 23.16667 C 13.02 g/m*3 23.17 C 8.61667 km/h
614 01-07-2019 13:00:00 24.89167 C 11.65 g/m*3 24.89 C 13.83333 km/h
615 01-07-2019 14:00:00 25.55833 C 12.15 g/m*3 25.56 C 10.61667 km/h
616 01-07-2019 15:00:00 26.675 C 11.92 g/m*3 26.68 C 13.7 km/h
617 01-07-2019 16:00:00 26.89167 C 11.34 g/m*3 26.89 C 13.3 km/h
618 01-07-2019 17:00:00 27.04167 C 10.86 g/m*3 27.04 C 15.43333 km/h
619 01-07-2019 18:00:00 26.3 C 10.89 g/m*3 26.3 C 13.96667 km/h
620 01-07-2019 19:00:00 25.96667 C 10.39 g/m*3 25.97 C 11.96667 km/h
621 01-07-2019 20:00:00 24.53333 C 10.46 g/m*3 24.53 C 8.05 km/h
622 01-07-2019 21:00:00 22.55833 C 10.25 g/m*3 22.56 C 7.25 km/h
623 01-07-2019 22:00:00 20.825 C 10.38 g/m*3 20.83 C 2.93333 km/h
624 01-07-2019 23:00:00 20.03333 C 10.29 g/m*3 20.03 C 8.33333 km/h
625 02-07-2019 00:00:00 18.85833 C 10.21 g/m*3 18.86 C 2.8 km/h
Sensor: Nr:Datum:Temp:Abs-Feuchte:Windchill:Wind:
Aussen-T/F 626 02-07-2019 01:00:00 16.89167 C 10.11 g/m*3 16.89 C 2 km/h
627 02-07-2019 02:00:00 15.85 C 10.04 g/m*3 15.85 C 1.73333 km/h
628 02-07-2019 03:00:00 15.49167 C 9.94 g/m*3 15.49 C 2.95 km/h
629 02-07-2019 04:00:00 14.525 C 9.82 g/m*3 14.53 C 0.26667 km/h
630 02-07-2019 05:00:00 13.45 C 9.71 g/m*3 13.45 C 0.13333 km/h
631 02-07-2019 06:00:00 13.10833 C 9.76 g/m*3 13.11 C 0 km/h
632 02-07-2019 07:00:00 13.23333 C 10.01 g/m*3 13.23 C 0 km/h
633 02-07-2019 08:00:00 14.925 C 10.47 g/m*3 14.93 C 3.75 km/h
634 02-07-2019 09:00:00 17.48333 C 10.48 g/m*3 17.48 C 8.45 km/h
635 02-07-2019 10:00:00 19 C 10.23 g/m*3 19 C 9.01667 km/h
636 02-07-2019 11:00:00 19.60833 C 10.23 g/m*3 19.61 C 6.01667 km/h
637 02-07-2019 12:00:00 20.48333 C 9.79 g/m*3 20.48 C 9 km/h
638 02-07-2019 13:00:00 21.46667 C 9.68 g/m*3 21.47 C 10.075 km/h
639 02-07-2019 14:00:00 22.31667 C 9.72 g/m*3 22.32 C 9.11667 km/h
640 02-07-2019 15:00:00 23.00833 C 9.78 g/m*3 23.01 C 9.14167 km/h
641 02-07-2019 16:00:00 24.98333 C 9.26 g/m*3 24.98 C 11.83333 km/h
642 02-07-2019 17:00:00 25.49167 C 9.11 g/m*3 25.49 C 11.83333 km/h
643 02-07-2019 18:00:00 24.36667 C 9.18 g/m*3 24.37 C 9.675 km/h
644 02-07-2019 19:00:00 24.775 C 8.77 g/m*3 24.78 C 9.83333 km/h
645 02-07-2019 20:00:00 22.95 C 8.56 g/m*3 22.95 C 10.35833 km/h
646 02-07-2019 21:00:00 20.825 C 8.81 g/m*3 20.83 C 2.66667 km/h
647 02-07-2019 22:00:00 17.64167 C 8.76 g/m*3 17.64 C 0.26667 km/h
648 02-07-2019 23:00:00 16.3 C 8.64 g/m*3 16.3 C 0.13333 km/h
649 03-07-2019 00:00:00 14.80833 C 8.63 g/m*3 14.81 C 0 km/h
650 03-07-2019 01:00:00 13.23333 C 8.49 g/m*3 13.23 C 0 km/h
Sensor: Nr:Datum:Temp:Abs-Feuchte:Windchill:Wind:
Aussen-T/F 651 03-07-2019 02:00:00 12.30833 C 8.39 g/m*3 12.31 C 0 km/h
652 03-07-2019 03:00:00 11.475 C 8.3 g/m*3 11.48 C 0 km/h
653 03-07-2019 04:00:00 10.65 C 8.15 g/m*3 10.65 C 0 km/h
654 03-07-2019 05:00:00 10.10833 C 8.12 g/m*3 10.11 C 0 km/h
655 03-07-2019 06:00:00 10.13333 C 8.34 g/m*3 10.13 C 0 km/h
656 03-07-2019 07:00:00 10.91667 C 8.83 g/m*3 10.92 C 0 km/h
657 03-07-2019 08:00:00 12.31667 C 9.37 g/m*3 12.32 C 0 km/h
658 03-07-2019 09:00:00 14.475 C 9.56 g/m*3 14.48 C 0.8 km/h
659 03-07-2019 10:00:00 18.01667 C 9.37 g/m*3 18.02 C 3.86667 km/h
660 03-07-2019 11:00:00 19.95 C 8.76 g/m*3 19.95 C 9.4 km/h
661 03-07-2019 12:00:00 20.75833 C 8.81 g/m*3 20.76 C 9.55 km/h
662 03-07-2019 13:00:00 21.4 C 8.75 g/m*3 21.4 C 11.69167 km/h
663 03-07-2019 14:00:00 21.975 C 8.98 g/m*3 21.98 C 11.96667 km/h
664 03-07-2019 15:00:00 22.625 C 9.09 g/m*3 22.63 C 10.89167 km/h
665 03-07-2019 16:00:00 24.44167 C 8.9 g/m*3 24.44 C 11.43333 km/h
666 03-07-2019 17:00:00 24.56667 C 8.56 g/m*3 24.57 C 13.43333 km/h
667 03-07-2019 18:00:00 24.70833 C 8.49 g/m*3 24.71 C 13.3 km/h
668 03-07-2019 19:00:00 23.79167 C 8.35 g/m*3 23.79 C 13.7 km/h
669 03-07-2019 20:00:00 22.35833 C 8.3 g/m*3 22.36 C 10.5 km/h
670 03-07-2019 21:00:00 20.40833 C 8.22 g/m*3 20.41 C 5.91667 km/h
671 03-07-2019 22:00:00 17.54167 C 8.23 g/m*3 17.54 C 1.46667 km/h
672 03-07-2019 23:00:00 15.46667 C 8.16 g/m*3 15.47 C 0.13333 km/h
673 04-07-2019 00:00:00 14.2 C 8.05 g/m*3 14.2 C 0.26667 km/h
674 04-07-2019 01:00:00 13.48333 C 7.96 g/m*3 13.48 C 0.13333 km/h
675 04-07-2019 02:00:00 12.625 C 7.94 g/m*3 12.63 C 0 km/h
Sensor: Nr:Datum:Temp:Abs-Feuchte:Windchill:Wind:
Aussen-T/F 676 04-07-2019 03:00:00 11.24167 C 7.84 g/m*3 11.24 C 0 km/h
677 04-07-2019 04:00:00 10.78333 C 7.87 g/m*3 10.78 C 0 km/h
678 04-07-2019 05:00:00 10.51667 C 7.94 g/m*3 10.52 C 0 km/h
679 04-07-2019 06:00:00 10.28333 C 8.01 g/m*3 10.28 C 0 km/h
680 04-07-2019 07:00:00 10.55 C 8.37 g/m*3 10.55 C 0 km/h
681 04-07-2019 08:00:00 11.76667 C 8.81 g/m*3 11.77 C 0 km/h
682 04-07-2019 09:00:00 14.4 C 9.04 g/m*3 14.4 C 2.94167 km/h
683 04-07-2019 10:00:00 18.125 C 8.68 g/m*3 18.13 C 6.99167 km/h
684 04-07-2019 11:00:00 19.58333 C 8.28 g/m*3 19.58 C 7.38333 km/h
685 04-07-2019 12:00:00 20.4 C 8.02 g/m*3 20.4 C 8.33333 km/h
686 04-07-2019 13:00:00 21.63333 C 7.9 g/m*3 21.63 C 8.475 km/h
687 04-07-2019 14:00:00 22.71667 C 7.68 g/m*3 22.72 C 6.825 km/h
688 04-07-2019 15:00:00 24.7 C 7.6 g/m*3 24.7 C 9.41667 km/h
689 04-07-2019 16:00:00 26.80833 C 8 g/m*3 26.81 C 8.6 km/h
690 04-07-2019 17:00:00 26.9 C 8.17 g/m*3 26.9 C 9.4 km/h
691 04-07-2019 18:00:00 27.35 C 8.07 g/m*3 27.35 C 8.74167 km/h
692 04-07-2019 19:00:00 26.94167 C 8.12 g/m*3 26.94 C 7.36667 km/h
693 04-07-2019 20:00:00 24.95 C 8.3 g/m*3 24.95 C 5.61667 km/h
694 04-07-2019 21:00:00 21.60833 C 9 g/m*3 21.61 C 0.8 km/h
695 04-07-2019 22:00:00 18.56667 C 8.48 g/m*3 18.57 C 0.13333 km/h
696 04-07-2019 23:00:00 17.39167 C 8.44 g/m*3 17.39 C 0.13333 km/h
697 05-07-2019 00:00:00 16.41667 C 8.59 g/m*3 16.42 C 0.13333 km/h
698 05-07-2019 01:00:00 15.18333 C 8.54 g/m*3 15.18 C 0 km/h
699 05-07-2019 02:00:00 14.13333 C 8.41 g/m*3 14.13 C 0 km/h
700 05-07-2019 03:00:00 13.70833 C 8.68 g/m*3 13.71 C 1.06667 km/h
Sensor: Nr:Datum:Temp:Abs-Feuchte:Windchill:Wind:
Aussen-T/F 701 05-07-2019 04:00:00 14.08333 C 8.95 g/m*3 14.08 C 2.93333 km/h
702 05-07-2019 05:00:00 13.75833 C 8.86 g/m*3 13.76 C 0.93333 km/h
703 05-07-2019 06:00:00 13.93333 C 9.17 g/m*3 13.93 C 1.33333 km/h
704 05-07-2019 07:00:00 14.55 C 9.41 g/m*3 14.55 C 3.60833 km/h
705 05-07-2019 08:00:00 15.8 C 9.77 g/m*3 15.8 C 5.61667 km/h
706 05-07-2019 09:00:00 17.29167 C 9.95 g/m*3 17.29 C 3.06667 km/h
707 05-07-2019 10:00:00 20.225 C 10.27 g/m*3 20.23 C 4.40833 km/h
708 05-07-2019 11:00:00 21.94167 C 10.28 g/m*3 21.94 C 5.76667 km/h
709 05-07-2019 12:00:00 22.84167 C 10.24 g/m*3 22.84 C 5.775 km/h
710 05-07-2019 13:00:00 24.38333 C 10.1 g/m*3 24.38 C 9.825 km/h
711 05-07-2019 14:00:00 25.5 C 10.12 g/m*3 25.5 C 7.65 km/h
712 05-07-2019 15:00:00 27.45 C 9.98 g/m*3 27.45 C 9.68333 km/h
713 05-07-2019 16:00:00 28.91667 C 9.96 g/m*3 28.92 C 10.09167 km/h
714 05-07-2019 17:00:00 29.6 C 10.02 g/m*3 29.6 C 9.94167 km/h
715 05-07-2019 18:00:00 29.41667 C 10.28 g/m*3 29.42 C 11.025 km/h
716 05-07-2019 19:00:00 27.68333 C 10.33 g/m*3 27.68 C 8.75 km/h
717 05-07-2019 20:00:00 26.10833 C 10.45 g/m*3 26.11 C 4.26667 km/h
718 05-07-2019 21:00:00 23.225 C 10.96 g/m*3 23.23 C 0.26667 km/h
719 05-07-2019 22:00:00 21.18333 C 10.88 g/m*3 21.18 C 0.26667 km/h
720 05-07-2019 23:00:00 20.4 C 11.09 g/m*3 20.4 C 0 km/h

Maximal/Minimal-Werte vom 06.06.2019 - 05.07.2019

Sensor Min Max Avg
Temp
(Aussen-T/F)
8.4 °C
09-06-2019  06:20:00
37.9 °C
25-06-2019  17:45:00
20.08 °C
Abs-Feuchte
(Aussen-T/F)
7.6 g/m*3
04-07-2019  15:00:00
19.53 g/m*3
26-06-2019  11:00:00
11.68 g/m*3
Windchill
(Aussen-T/F)
8.63 C
09-06-2019  06:00:00
37.69 C
25-06-2019  17:00:00
20.06 C

Die Daten stammen von einer Davis Vantage Pro 2 Wetter-Station und werden unter Linux mit der Software wview2wettercgi und aufbereitet. Alle Angaben erfolgen ohne Gewähr für ihre Vollständigkeit oder Richtigkeit.
Kontakt: Rainer Krienke krienke@uni-koblenz.de . Meine Webseiten an der Uni Koblenz oder privat.
Version: $Revision: 0.78 $